sensor_id;sensor_type;location;lat;lon;timestamp;pressure;altitude;pressure_sealevel;temperature;humidity
45323;BME280;31382;50.200;8.674;2023-02-03T00:03:13;101356.69;;;10.07;64.10
45323;BME280;31382;50.200;8.674;2023-02-03T00:08:16;101333.66;;;9.95;64.59
45323;BME280;31382;50.200;8.674;2023-02-03T00:13:18;101317.00;;;10.01;64.45
45323;BME280;31382;50.200;8.674;2023-02-03T00:18:20;101312.88;;;9.97;64.50
45323;BME280;31382;50.200;8.674;2023-02-03T00:23:21;101330.41;;;10.01;64.30
45323;BME280;31382;50.200;8.674;2023-02-03T00:28:23;101332.66;;;10.06;64.68
45323;BME280;31382;50.200;8.674;2023-02-03T00:33:24;101356.22;;;10.12;64.68
45323;BME280;31382;50.200;8.674;2023-02-03T00:38:26;101351.41;;;10.16;64.49
45323;BME280;31382;50.200;8.674;2023-02-03T00:43:28;101352.94;;;10.18;64.52
45323;BME280;31382;50.200;8.674;2023-02-03T00:48:29;101344.88;;;10.18;64.58
45323;BME280;31382;50.200;8.674;2023-02-03T00:53:31;101322.56;;;10.18;64.78
45323;BME280;31382;50.200;8.674;2023-02-03T00:58:33;101287.91;;;10.15;64.98
45323;BME280;31382;50.200;8.674;2023-02-03T01:03:34;101260.97;;;10.06;64.98
45323;BME280;31382;50.200;8.674;2023-02-03T01:08:35;101290.81;;;10.03;65.07
45323;BME280;31382;50.200;8.674;2023-02-03T01:13:37;101315.00;;;10.03;65.35
45323;BME280;31382;50.200;8.674;2023-02-03T01:18:39;101296.91;;;10.05;65.32
45323;BME280;31382;50.200;8.674;2023-02-03T01:23:42;101297.59;;;10.07;65.66
45323;BME280;31382;50.200;8.674;2023-02-03T01:28:48;101287.22;;;10.12;65.46
45323;BME280;31382;50.200;8.674;2023-02-03T01:33:51;101283.84;;;10.10;65.62
45323;BME280;31382;50.200;8.674;2023-02-03T01:38:54;101279.84;;;10.15;65.73
45323;BME280;31382;50.200;8.674;2023-02-03T01:43:57;101283.56;;;10.13;65.75
45323;BME280;31382;50.200;8.674;2023-02-03T01:49:12;101286.53;;;10.10;65.93
45323;BME280;31382;50.200;8.674;2023-02-03T01:54:18;101279.84;;;10.15;65.92
45323;BME280;31382;50.200;8.674;2023-02-03T01:59:22;101285.41;;;10.13;66.03
45323;BME280;31382;50.200;8.674;2023-02-03T02:04:28;101267.13;;;10.17;65.92
45323;BME280;31382;50.200;8.674;2023-02-03T02:09:32;101262.06;;;10.13;66.55
45323;BME280;31382;50.200;8.674;2023-02-03T02:14:33;101254.69;;;10.16;65.90
45323;BME280;31382;50.200;8.674;2023-02-03T02:30:58;101284.44;;;10.04;66.70
45323;BME280;31382;50.200;8.674;2023-02-03T02:36:23;101270.47;;;10.01;67.00
45323;BME280;31382;50.200;8.674;2023-02-03T02:41:43;101289.13;;;10.02;67.07
45323;BME280;31382;50.200;8.674;2023-02-03T02:46:50;101294.22;;;10.05;66.76
45323;BME280;31382;50.200;8.674;2023-02-03T02:51:53;101299.56;;;10.05;67.25
45323;BME280;31382;50.200;8.674;2023-02-03T02:56:59;101308.75;;;10.03;67.35
45323;BME280;31382;50.200;8.674;2023-02-03T03:02:02;101299.72;;;10.04;67.51
45323;BME280;31382;50.200;8.674;2023-02-03T03:07:14;101285.53;;;10.11;67.32
45323;BME280;31382;50.200;8.674;2023-02-03T03:12:45;101288.09;;;10.13;67.45
45323;BME280;31382;50.200;8.674;2023-02-03T03:18:01;101306.78;;;10.05;67.77
45323;BME280;31382;50.200;8.674;2023-02-03T03:23:06;101310.31;;;10.05;67.98
45323;BME280;31382;50.200;8.674;2023-02-03T03:28:22;101303.69;;;10.00;68.36
45323;BME280;31382;50.200;8.674;2023-02-03T03:33:26;101261.16;;;9.95;68.59
45323;BME280;31382;50.200;8.674;2023-02-03T03:38:34;101250.31;;;9.87;69.17
45323;BME280;31382;50.200;8.674;2023-02-03T03:43:38;101231.09;;;9.91;68.92
45323;BME280;31382;50.200;8.674;2023-02-03T03:48:53;101271.50;;;9.90;68.87
45323;BME280;31382;50.200;8.674;2023-02-03T03:53:59;101271.50;;;9.90;69.06
45323;BME280;31382;50.200;8.674;2023-02-03T03:59:03;101241.13;;;9.89;69.12
45323;BME280;31382;50.200;8.674;2023-02-03T04:04:09;101230.41;;;9.89;69.09
45323;BME280;31382;50.200;8.674;2023-02-03T04:09:11;101244.06;;;9.96;69.00
45323;BME280;31382;50.200;8.674;2023-02-03T04:14:12;101264.41;;;9.99;68.74
45323;BME280;31382;50.200;8.674;2023-02-03T04:19:13;101289.81;;;10.04;68.71
45323;BME280;31382;50.200;8.674;2023-02-03T04:24:15;101287.81;;;10.06;68.63
45323;BME280;31382;50.200;8.674;2023-02-03T04:29:16;101254.06;;;10.04;68.54
45323;BME280;31382;50.200;8.674;2023-02-03T04:34:18;101277.91;;;10.07;68.57
45323;BME280;31382;50.200;8.674;2023-02-03T04:39:19;101316.06;;;10.10;68.75
45323;BME280;31382;50.200;8.674;2023-02-03T04:44:20;101322.66;;;9.98;69.15
45323;BME280;31382;50.200;8.674;2023-02-03T04:49:21;101302.94;;;9.80;69.60
45323;BME280;31382;50.200;8.674;2023-02-03T04:54:23;101291.53;;;9.68;70.11
45323;BME280;31382;50.200;8.674;2023-02-03T04:59:24;101268.28;;;9.49;70.66
45323;BME280;31382;50.200;8.674;2023-02-03T05:04:26;101283.25;;;9.42;70.84
45323;BME280;31382;50.200;8.674;2023-02-03T05:09:27;101262.09;;;9.39;70.91
45323;BME280;31382;50.200;8.674;2023-02-03T05:14:28;101247.69;;;9.40;70.94
45323;BME280;31382;50.200;8.674;2023-02-03T05:19:30;101238.78;;;9.39;71.42
45323;BME280;31382;50.200;8.674;2023-02-03T05:24:31;101230.59;;;9.41;71.53
45323;BME280;31382;50.200;8.674;2023-02-03T05:29:32;101228.75;;;9.41;71.11
45323;BME280;31382;50.200;8.674;2023-02-03T05:34:34;101215.19;;;9.43;71.45
45323;BME280;31382;50.200;8.674;2023-02-03T05:39:35;101211.91;;;9.49;71.19
45323;BME280;31382;50.200;8.674;2023-02-03T05:44:36;101220.81;;;9.49;71.18
45323;BME280;31382;50.200;8.674;2023-02-03T05:49:38;101232.09;;;9.53;71.33
45323;BME280;31382;50.200;8.674;2023-02-03T05:54:39;101235.59;;;9.63;70.96
45323;BME280;31382;50.200;8.674;2023-02-03T05:59:40;101256.63;;;9.68;71.05
45323;BME280;31382;50.200;8.674;2023-02-03T06:04:42;101239.53;;;9.69;70.81
45323;BME280;31382;50.200;8.674;2023-02-03T06:09:43;101232.03;;;9.72;70.76
45323;BME280;31382;50.200;8.674;2023-02-03T06:14:45;101221.28;;;9.72;70.89
45323;BME280;31382;50.200;8.674;2023-02-03T06:19:46;101214.47;;;9.78;70.62
45323;BME280;31382;50.200;8.674;2023-02-03T06:24:48;101216.63;;;9.75;70.61
45323;BME280;31382;50.200;8.674;2023-02-03T06:29:49;101210.09;;;9.77;70.56
45323;BME280;31382;50.200;8.674;2023-02-03T06:34:50;101226.19;;;9.77;70.40
45323;BME280;31382;50.200;8.674;2023-02-03T06:39:52;101221.53;;;9.79;70.43
45323;BME280;31382;50.200;8.674;2023-02-03T06:44:53;101234.06;;;9.88;70.20
45323;BME280;31382;50.200;8.674;2023-02-03T06:49:55;101230.91;;;9.93;69.95
45323;BME280;31382;50.200;8.674;2023-02-03T06:54:56;101228.63;;;9.98;69.73
45323;BME280;31382;50.200;8.674;2023-02-03T06:59:57;101226.50;;;10.02;69.52
45323;BME280;31382;50.200;8.674;2023-02-03T07:04:59;101219.00;;;10.05;69.45
45323;BME280;31382;50.200;8.674;2023-02-03T07:10:01;101224.31;;;10.15;68.87
45323;BME280;31382;50.200;8.674;2023-02-03T07:15:03;101229.50;;;10.17;68.93
45323;BME280;31382;50.200;8.674;2023-02-03T07:20:05;101224.69;;;10.20;68.61
45323;BME280;31382;50.200;8.674;2023-02-03T07:25:07;101211.09;;;10.22;68.69
45323;BME280;31382;50.200;8.674;2023-02-03T07:30:09;101204.88;;;10.21;68.67
45323;BME280;31382;50.200;8.674;2023-02-03T07:35:10;101252.09;;;10.24;68.47
45323;BME280;31382;50.200;8.674;2023-02-03T07:40:13;101250.72;;;10.20;68.45
45323;BME280;31382;50.200;8.674;2023-02-03T07:45:16;101249.00;;;10.19;68.63
45323;BME280;31382;50.200;8.674;2023-02-03T07:50:18;101244.28;;;10.30;68.07
45323;BME280;31382;50.200;8.674;2023-02-03T07:55:19;101256.28;;;10.36;67.87
45323;BME280;31382;50.200;8.674;2023-02-03T08:00:20;101253.34;;;10.29;67.98
45323;BME280;31382;50.200;8.674;2023-02-03T08:05:22;101249.06;;;10.37;67.49
45323;BME280;31382;50.200;8.674;2023-02-03T08:10:23;101231.53;;;10.32;67.70
45323;BME280;31382;50.200;8.674;2023-02-03T08:15:25;101236.69;;;10.44;67.08
45323;BME280;31382;50.200;8.674;2023-02-03T08:20:26;101238.63;;;10.51;66.89
45323;BME280;31382;50.200;8.674;2023-02-03T08:25:28;101224.28;;;10.61;66.43
45323;BME280;31382;50.200;8.674;2023-02-03T08:30:30;101222.72;;;10.58;66.51
45323;BME280;31382;50.200;8.674;2023-02-03T08:35:32;101243.16;;;10.69;66.13
45323;BME280;31382;50.200;8.674;2023-02-03T08:40:33;101229.72;;;10.69;65.85
45323;BME280;31382;50.200;8.674;2023-02-03T08:45:35;101219.31;;;10.74;65.54
45323;BME280;31382;50.200;8.674;2023-02-03T08:50:36;101221.78;;;10.85;65.01
45323;BME280;31382;50.200;8.674;2023-02-03T08:55:38;101199.81;;;10.90;64.62
45323;BME280;31382;50.200;8.674;2023-02-03T09:00:40;101182.50;;;10.93;64.63
45323;BME280;31382;50.200;8.674;2023-02-03T09:05:42;101194.00;;;11.03;63.90
45323;BME280;31382;50.200;8.674;2023-02-03T09:10:43;101216.50;;;11.02;63.76
45323;BME280;31382;50.200;8.674;2023-02-03T09:15:44;101200.34;;;11.02;63.38
45323;BME280;31382;50.200;8.674;2023-02-03T09:20:46;101233.09;;;11.15;63.08
45323;BME280;31382;50.200;8.674;2023-02-03T09:25:47;101214.94;;;11.17;62.33
45323;BME280;31382;50.200;8.674;2023-02-03T09:30:49;101205.53;;;11.21;62.18
45323;BME280;31382;50.200;8.674;2023-02-03T09:35:55;101204.28;;;11.34;62.32
45323;BME280;31382;50.200;8.674;2023-02-03T09:46:18;101209.38;;;11.45;61.50
45323;BME280;31382;50.200;8.674;2023-02-03T09:51:25;101193.59;;;11.50;61.58
45323;BME280;31382;50.200;8.674;2023-02-03T09:56:30;101188.72;;;11.54;61.76
45323;BME280;31382;50.200;8.674;2023-02-03T10:01:38;101210.59;;;11.59;61.13
45323;BME280;31382;50.200;8.674;2023-02-03T10:06:45;101193.94;;;11.55;60.71
45323;BME280;31382;50.200;8.674;2023-02-03T10:12:08;101174.47;;;11.69;60.45
45323;BME280;31382;50.200;8.674;2023-02-03T10:22:38;101193.50;;;11.76;60.14
45323;BME280;31382;50.200;8.674;2023-02-03T10:27:41;101175.50;;;11.77;60.32
45323;BME280;31382;50.200;8.674;2023-02-03T10:32:43;101199.78;;;11.85;60.41
45323;BME280;31382;50.200;8.674;2023-02-03T10:37:49;101197.25;;;11.83;59.92
45323;BME280;31382;50.200;8.674;2023-02-03T10:42:53;101209.53;;;11.78;60.19
45323;BME280;31382;50.200;8.674;2023-02-03T10:48:15;101204.44;;;11.75;59.57
45323;BME280;31382;50.200;8.674;2023-02-03T10:53:31;101204.78;;;11.71;60.06
45323;BME280;31382;50.200;8.674;2023-02-03T10:58:33;101188.47;;;11.73;59.75
45323;BME280;31382;50.200;8.674;2023-02-03T11:03:35;101169.28;;;11.84;59.88
45323;BME280;31382;50.200;8.674;2023-02-03T11:08:39;101161.03;;;11.78;59.99
45323;BME280;31382;50.200;8.674;2023-02-03T11:13:41;101161.72;;;11.80;60.35
45323;BME280;31382;50.200;8.674;2023-02-03T11:18:51;101166.06;;;11.73;60.52
45323;BME280;31382;50.200;8.674;2023-02-03T11:23:56;101163.88;;;11.68;61.41
45323;BME280;31382;50.200;8.674;2023-02-03T11:28:59;101182.03;;;11.66;61.54
45323;BME280;31382;50.200;8.674;2023-02-03T11:34:15;101187.59;;;11.64;61.58
45323;BME280;31382;50.200;8.674;2023-02-03T11:44:29;101191.03;;;11.83;61.65
45323;BME280;31382;50.200;8.674;2023-02-03T12:00:35;101143.13;;;11.60;62.35
45323;BME280;31382;50.200;8.674;2023-02-03T12:06:01;101130.88;;;11.66;62.75
45323;BME280;31382;50.200;8.674;2023-02-03T12:16:47;101109.16;;;11.67;62.87
45323;BME280;31382;50.200;8.674;2023-02-03T12:22:16;101104.78;;;11.66;62.87
45323;BME280;31382;50.200;8.674;2023-02-03T12:27:55;101114.56;;;11.67;63.08
45323;BME280;31382;50.200;8.674;2023-02-03T12:33:10;101110.41;;;11.39;64.33
45323;BME280;31382;50.200;8.674;2023-02-03T12:43:49;101154.31;;;11.05;65.62
45323;BME280;31382;50.200;8.674;2023-02-03T12:54:46;101138.66;;;11.00;66.42
45323;BME280;31382;50.200;8.674;2023-02-03T13:00:17;101128.31;;;10.87;67.10
45323;BME280;31382;50.200;8.674;2023-02-03T13:05:25;101108.38;;;10.72;67.83
45323;BME280;31382;50.200;8.674;2023-02-03T13:10:36;101102.91;;;10.56;68.78
45323;BME280;31382;50.200;8.674;2023-02-03T13:15:43;101088.09;;;10.51;69.04
45323;BME280;31382;50.200;8.674;2023-02-03T13:20:45;101095.47;;;10.49;69.48
45323;BME280;31382;50.200;8.674;2023-02-03T13:31:18;101118.22;;;10.37;70.44
45323;BME280;31382;50.200;8.674;2023-02-03T13:41:50;101103.53;;;10.49;70.56
45323;BME280;31382;50.200;8.674;2023-02-03T13:46:55;101109.38;;;10.45;70.98
45323;BME280;31382;50.200;8.674;2023-02-03T13:51:57;101102.47;;;10.42;71.54
45323;BME280;31382;50.200;8.674;2023-02-03T13:57:02;101083.00;;;10.48;71.57
45323;BME280;31382;50.200;8.674;2023-02-03T14:07:33;101110.03;;;10.65;71.49
45323;BME280;31382;50.200;8.674;2023-02-03T14:12:36;101120.31;;;10.69;71.33
45323;BME280;31382;50.200;8.674;2023-02-03T14:22:42;101128.03;;;10.64;72.15
45323;BME280;31382;50.200;8.674;2023-02-03T14:27:44;101130.38;;;10.67;72.10
45323;BME280;31382;50.200;8.674;2023-02-03T14:32:51;101136.81;;;10.75;72.10
45323;BME280;31382;50.200;8.674;2023-02-03T14:38:06;101128.41;;;10.78;72.10
45323;BME280;31382;50.200;8.674;2023-02-03T14:43:25;101125.84;;;10.68;72.62
45323;BME280;31382;50.200;8.674;2023-02-03T14:48:33;101112.38;;;10.68;72.78
45323;BME280;31382;50.200;8.674;2023-02-03T14:54:01;101119.81;;;10.74;72.79
45323;BME280;31382;50.200;8.674;2023-02-03T14:59:08;101138.53;;;10.84;73.09
45323;BME280;31382;50.200;8.674;2023-02-03T15:09:27;101159.91;;;10.85;72.89
45323;BME280;31382;50.200;8.674;2023-02-03T15:14:30;101161.81;;;10.93;72.98
45323;BME280;31382;50.200;8.674;2023-02-03T15:19:38;101169.09;;;11.01;72.67
45323;BME280;31382;50.200;8.674;2023-02-03T15:24:39;101174.78;;;10.98;72.81
45323;BME280;31382;50.200;8.674;2023-02-03T15:29:41;101180.84;;;11.00;72.84
45323;BME280;31382;50.200;8.674;2023-02-03T15:34:46;101190.38;;;11.12;72.75
45323;BME280;31382;50.200;8.674;2023-02-03T15:40:02;101187.97;;;11.09;72.85
45323;BME280;31382;50.200;8.674;2023-02-03T15:45:15;101173.16;;;11.05;72.81
45323;BME280;31382;50.200;8.674;2023-02-03T15:50:28;101176.16;;;11.02;73.12
45323;BME280;31382;50.200;8.674;2023-02-03T15:55:45;101191.69;;;11.08;73.16
45323;BME280;31382;50.200;8.674;2023-02-03T16:00:51;101185.97;;;11.11;72.89
45323;BME280;31382;50.200;8.674;2023-02-03T16:05:53;101173.03;;;11.15;72.68
45323;BME280;31382;50.200;8.674;2023-02-03T16:10:55;101178.91;;;11.10;72.64
45323;BME280;31382;50.200;8.674;2023-02-03T16:16:02;101185.31;;;11.17;72.05
45323;BME280;31382;50.200;8.674;2023-02-03T16:21:27;101204.88;;;11.27;71.87
45323;BME280;31382;50.200;8.674;2023-02-03T16:26:30;101200.47;;;11.18;71.96
45323;BME280;31382;50.200;8.674;2023-02-03T16:31:40;101192.41;;;11.18;71.79
45323;BME280;31382;50.200;8.674;2023-02-03T16:37:15;101210.28;;;11.27;71.09
45323;BME280;31382;50.200;8.674;2023-02-03T16:42:39;101206.16;;;11.41;70.85
45323;BME280;31382;50.200;8.674;2023-02-03T16:47:59;101219.44;;;11.43;70.15
45323;BME280;31382;50.200;8.674;2023-02-03T16:53:27;101213.06;;;11.44;70.04
45323;BME280;31382;50.200;8.674;2023-02-03T16:58:30;101211.06;;;11.46;69.82
45323;BME280;31382;50.200;8.674;2023-02-03T17:03:33;101206.53;;;11.46;69.84
45323;BME280;31382;50.200;8.674;2023-02-03T17:08:38;101216.75;;;11.43;69.52
45323;BME280;31382;50.200;8.674;2023-02-03T17:13:40;101221.31;;;11.42;69.97
45323;BME280;31382;50.200;8.674;2023-02-03T17:18:43;101226.88;;;11.49;69.28
45323;BME280;31382;50.200;8.674;2023-02-03T17:23:46;101244.09;;;11.56;68.98
45323;BME280;31382;50.200;8.674;2023-02-03T17:28:47;101250.84;;;11.60;68.62
45323;BME280;31382;50.200;8.674;2023-02-03T17:33:50;101245.97;;;11.56;68.96
45323;BME280;31382;50.200;8.674;2023-02-03T17:38:55;101269.47;;;11.45;69.06
45323;BME280;31382;50.200;8.674;2023-02-03T17:44:16;101277.78;;;11.34;69.69
45323;BME280;31382;50.200;8.674;2023-02-03T17:49:35;101287.19;;;11.30;69.02
45323;BME280;31382;50.200;8.674;2023-02-03T17:54:54;101286.41;;;11.38;68.11
45323;BME280;31382;50.200;8.674;2023-02-03T17:59:55;101281.81;;;11.30;64.94
45323;BME280;31382;50.200;8.674;2023-02-03T18:04:59;101287.72;;;11.34;64.32
45323;BME280;31382;50.200;8.674;2023-02-03T18:10:00;101275.75;;;11.28;62.84
45323;BME280;31382;50.200;8.674;2023-02-03T18:15:02;101284.00;;;11.35;62.54
45323;BME280;31382;50.200;8.674;2023-02-03T18:20:04;101275.94;;;11.35;61.01
45323;BME280;31382;50.200;8.674;2023-02-03T18:25:05;101270.94;;;11.40;59.87
45323;BME280;31382;50.200;8.674;2023-02-03T18:30:07;101289.72;;;11.31;57.99
45323;BME280;31382;50.200;8.674;2023-02-03T18:35:11;101295.53;;;11.45;58.27
45323;BME280;31382;50.200;8.674;2023-02-03T18:40:17;101302.47;;;11.47;57.88
45323;BME280;31382;50.200;8.674;2023-02-03T18:45:18;101311.22;;;11.49;57.08
45323;BME280;31382;50.200;8.674;2023-02-03T18:50:19;101317.44;;;11.50;56.74
45323;BME280;31382;50.200;8.674;2023-02-03T18:55:22;101333.91;;;11.47;54.59
45323;BME280;31382;50.200;8.674;2023-02-03T19:00:23;101348.81;;;11.59;55.22
45323;BME280;31382;50.200;8.674;2023-02-03T19:05:25;101354.41;;;11.66;54.72
45323;BME280;31382;50.200;8.674;2023-02-03T19:10:26;101353.09;;;11.70;55.17
45323;BME280;31382;50.200;8.674;2023-02-03T19:15:28;101345.78;;;11.62;54.94
45323;BME280;31382;50.200;8.674;2023-02-03T19:20:29;101361.22;;;11.52;55.49
45323;BME280;31382;50.200;8.674;2023-02-03T19:25:31;101369.97;;;11.54;55.27
45323;BME280;31382;50.200;8.674;2023-02-03T19:30:34;101367.28;;;11.54;55.68
45323;BME280;31382;50.200;8.674;2023-02-03T19:35:35;101358.56;;;11.60;56.13
45323;BME280;31382;50.200;8.674;2023-02-03T19:40:37;101384.28;;;11.55;56.48
45323;BME280;31382;50.200;8.674;2023-02-03T19:45:38;101381.63;;;11.37;57.00
45323;BME280;31382;50.200;8.674;2023-02-03T19:50:39;101396.41;;;11.15;57.83
45323;BME280;31382;50.200;8.674;2023-02-03T19:55:45;101404.53;;;11.05;58.03
45323;BME280;31382;50.200;8.674;2023-02-03T20:00:47;101418.63;;;11.17;58.00
45323;BME280;31382;50.200;8.674;2023-02-03T20:05:49;101430.75;;;11.21;58.50
45323;BME280;31382;50.200;8.674;2023-02-03T20:10:53;101419.38;;;11.09;58.66
45323;BME280;31382;50.200;8.674;2023-02-03T20:15:54;101427.09;;;11.04;59.45
45323;BME280;31382;50.200;8.674;2023-02-03T20:20:56;101415.00;;;10.90;59.60
45323;BME280;31382;50.200;8.674;2023-02-03T20:25:58;101425.50;;;10.83;59.92
45323;BME280;31382;50.200;8.674;2023-02-03T20:31:00;101427.50;;;10.81;59.99
45323;BME280;31382;50.200;8.674;2023-02-03T20:36:02;101425.31;;;10.67;60.40
45323;BME280;31382;50.200;8.674;2023-02-03T20:41:08;101435.31;;;10.75;60.00
45323;BME280;31382;50.200;8.674;2023-02-03T20:46:16;101427.16;;;10.66;60.39
45323;BME280;31382;50.200;8.674;2023-02-03T20:51:17;101438.91;;;10.65;60.30
45323;BME280;31382;50.200;8.674;2023-02-03T20:56:21;101426.56;;;10.73;60.34
45323;BME280;31382;50.200;8.674;2023-02-03T21:01:23;101446.63;;;10.78;60.15
45323;BME280;31382;50.200;8.674;2023-02-03T21:06:25;101439.59;;;10.67;60.36
45323;BME280;31382;50.200;8.674;2023-02-03T21:11:28;101437.47;;;10.71;60.18
45323;BME280;31382;50.200;8.674;2023-02-03T21:16:34;101443.22;;;10.76;60.05
45323;BME280;31382;50.200;8.674;2023-02-03T21:21:38;101451.00;;;10.79;59.70
45323;BME280;31382;50.200;8.674;2023-02-03T21:26:42;101451.50;;;10.65;59.81
45323;BME280;31382;50.200;8.674;2023-02-03T21:31:43;101466.09;;;10.62;59.59
45323;BME280;31382;50.200;8.674;2023-02-03T21:36:45;101474.00;;;10.64;59.55
45323;BME280;31382;50.200;8.674;2023-02-03T21:41:46;101474.69;;;10.66;59.18
45323;BME280;31382;50.200;8.674;2023-02-03T21:46:48;101475.44;;;10.58;59.13
45323;BME280;31382;50.200;8.674;2023-02-03T21:51:49;101499.50;;;10.60;59.43
45323;BME280;31382;50.200;8.674;2023-02-03T21:56:50;101504.19;;;10.58;59.41
45323;BME280;31382;50.200;8.674;2023-02-03T22:01:55;101497.53;;;10.52;59.40
45323;BME280;31382;50.200;8.674;2023-02-03T22:06:58;101502.94;;;10.42;59.50
45323;BME280;31382;50.200;8.674;2023-02-03T22:11:59;101517.50;;;10.49;59.28
45323;BME280;31382;50.200;8.674;2023-02-03T22:17:01;101510.22;;;10.32;59.50
45323;BME280;31382;50.200;8.674;2023-02-03T22:22:03;101521.53;;;10.36;59.42
45323;BME280;31382;50.200;8.674;2023-02-03T22:27:04;101550.25;;;10.35;59.33
45323;BME280;31382;50.200;8.674;2023-02-03T22:32:06;101547.38;;;10.46;59.10
45323;BME280;31382;50.200;8.674;2023-02-03T22:37:07;101568.88;;;10.37;59.12
45323;BME280;31382;50.200;8.674;2023-02-03T22:42:09;101568.75;;;10.38;58.89
45323;BME280;31382;50.200;8.674;2023-02-03T22:47:10;101578.94;;;10.35;59.13
45323;BME280;31382;50.200;8.674;2023-02-03T22:52:12;101602.28;;;10.44;58.94
45323;BME280;31382;50.200;8.674;2023-02-03T22:57:13;101594.66;;;10.39;58.81
45323;BME280;31382;50.200;8.674;2023-02-03T23:02:15;101601.72;;;10.40;58.88
45323;BME280;31382;50.200;8.674;2023-02-03T23:07:17;101588.28;;;10.30;59.02
45323;BME280;31382;50.200;8.674;2023-02-03T23:12:18;101603.97;;;10.25;59.39
45323;BME280;31382;50.200;8.674;2023-02-03T23:17:20;101600.88;;;10.30;58.88
45323;BME280;31382;50.200;8.674;2023-02-03T23:22:21;101600.88;;;10.30;58.82
45323;BME280;31382;50.200;8.674;2023-02-03T23:27:23;101623.22;;;10.30;59.02
45323;BME280;31382;50.200;8.674;2023-02-03T23:32:24;101622.38;;;10.40;58.80
45323;BME280;31382;50.200;8.674;2023-02-03T23:37:25;101630.84;;;10.55;58.60
45323;BME280;31382;50.200;8.674;2023-02-03T23:42:27;101639.91;;;10.54;58.64
45323;BME280;31382;50.200;8.674;2023-02-03T23:47:28;101650.38;;;10.57;58.51
45323;BME280;31382;50.200;8.674;2023-02-03T23:52:29;101648.28;;;10.41;58.75
45323;BME280;31382;50.200;8.674;2023-02-03T23:57:36;101648.28;;;10.50;58.37
